createdAt,value
2022-10-22T00:00:27.027Z,7.83
2022-10-22T00:02:57.722Z,7.20
2022-10-22T00:05:26.580Z,8.35
2022-10-22T00:07:56.210Z,7.75
2022-10-22T00:10:26.723Z,7.20
2022-10-22T00:12:56.584Z,8.15
2022-10-22T00:15:26.901Z,8.18
2022-10-22T00:17:58.174Z,7.65
2022-10-22T00:20:29.741Z,7.05
2022-10-22T00:22:58.647Z,7.60
2022-10-22T00:25:28.030Z,7.62
2022-10-22T00:27:57.809Z,7.40
2022-10-22T00:30:26.825Z,7.58
2022-10-22T00:32:57.043Z,8.23
2022-10-22T00:35:27.511Z,8.23
2022-10-22T00:37:56.701Z,7.97
2022-10-22T00:40:25.340Z,8.08
2022-10-22T00:42:54.825Z,7.80
2022-10-22T00:45:26.711Z,8.35
2022-10-22T00:48:02.700Z,7.75
2022-10-22T00:50:46.796Z,6.43
2022-10-22T00:53:22.955Z,7.60
2022-10-22T00:55:53.415Z,8.08
2022-10-22T00:58:26.295Z,9.58
2022-10-22T01:00:56.556Z,10.65
2022-10-22T01:03:26.615Z,9.05
2022-10-22T01:05:59.326Z,8.70
2022-10-22T01:08:48.963Z,8.95
2022-10-22T01:11:42.662Z,8.73
2022-10-22T01:14:35.877Z,8.08
2022-10-22T01:17:10.595Z,8.10
2022-10-22T01:20:15.574Z,8.35
2022-10-22T01:23:25.618Z,7.67
2022-10-22T01:26:26.791Z,8.08
2022-10-22T01:29:16.275Z,8.20
2022-10-22T01:32:06.204Z,8.38
2022-10-22T01:34:36.678Z,8.25
2022-10-22T01:37:06.280Z,7.97
2022-10-22T01:39:35.472Z,8.10
2022-10-22T01:42:04.395Z,8.90
2022-10-22T01:47:26.192Z,8.25
2022-10-22T01:50:10.270Z,8.25
2022-10-22T01:53:11.591Z,8.08
2022-10-22T01:56:09.079Z,8.33
2022-10-22T01:59:02.077Z,10.88
2022-10-22T02:02:07.240Z,9.58
2022-10-22T02:04:47.954Z,9.70
2022-10-22T02:07:20.752Z,9.23
2022-10-22T02:09:51.321Z,9.18
2022-10-22T02:12:22.604Z,10.53
2022-10-22T02:14:51.605Z,9.33
2022-10-22T02:17:22.480Z,10.48
2022-10-22T02:20:03.615Z,10.50
2022-10-22T02:22:33.748Z,11.35
2022-10-22T02:25:02.885Z,11.00
2022-10-22T02:27:48.876Z,10.75
2022-10-22T02:30:20.624Z,10.68
2022-10-22T02:33:21.314Z,11.00
2022-10-22T02:35:51.491Z,10.10
2022-10-22T02:38:24.792Z,10.15
2022-10-22T02:40:54.301Z,10.08
2022-10-22T02:43:25.556Z,9.70
2022-10-22T02:45:54.748Z,9.10
2022-10-22T02:48:23.845Z,10.10
2022-10-22T02:50:53.545Z,9.68
2022-10-22T02:53:22.816Z,9.23
2022-10-22T02:55:53.943Z,8.53
2022-10-22T02:58:23.486Z,8.38
2022-10-22T03:00:53.425Z,8.85
2022-10-22T03:03:24.350Z,8.68
2022-10-22T03:05:55.387Z,8.60
2022-10-22T03:08:26.196Z,8.20
2022-10-22T03:10:54.965Z,8.15
2022-10-22T03:13:25.998Z,7.62
2022-10-22T03:15:57.176Z,7.80
2022-10-22T03:18:26.912Z,7.92
2022-10-22T03:21:06.131Z,7.97
2022-10-22T03:23:36.182Z,8.05
2022-10-22T03:26:05.491Z,7.55
2022-10-22T03:28:36.383Z,7.83
2022-10-22T03:31:06.261Z,7.17
2022-10-22T03:33:36.654Z,7.28
2022-10-22T03:36:07.058Z,7.50
2022-10-22T03:38:38.330Z,7.47
2022-10-22T03:41:07.498Z,8.33
2022-10-22T03:43:38.071Z,7.85
2022-10-22T03:46:07.328Z,7.83
2022-10-22T03:48:36.548Z,7.90
2022-10-22T03:51:07.298Z,7.62
2022-10-22T03:53:36.025Z,7.70
2022-10-22T03:56:10.163Z,8.03
2022-10-22T03:58:40.473Z,7.33
2022-10-22T04:01:12.357Z,7.35
2022-10-22T04:03:42.052Z,7.45
2022-10-22T04:06:12.831Z,7.33
2022-10-22T04:08:42.546Z,7.62
2022-10-22T04:11:12.949Z,8.18
2022-10-22T04:13:43.359Z,8.23
2022-10-22T04:16:21.815Z,8.38
2022-10-22T04:18:52.561Z,8.20
2022-10-22T04:21:22.410Z,7.65
2022-10-22T04:24:13.337Z,8.13
2022-10-22T04:26:43.072Z,7.92
2022-10-22T04:29:15.953Z,7.97
2022-10-22T04:31:44.883Z,7.80
2022-10-22T04:34:16.124Z,7.50
2022-10-22T04:36:45.470Z,7.83
2022-10-22T04:39:15.406Z,8.08
2022-10-22T04:41:44.851Z,8.65
2022-10-22T04:44:17.602Z,8.00
2022-10-22T04:46:47.453Z,8.25
2022-10-22T04:49:17.017Z,7.55
2022-10-22T04:51:46.922Z,8.08
2022-10-22T04:54:16.677Z,7.62
2022-10-22T04:56:46.436Z,8.18
2022-10-22T04:59:16.758Z,8.15
2022-10-22T05:01:46.567Z,8.08
2022-10-22T05:04:17.503Z,8.60
2022-10-22T05:06:46.746Z,7.75
2022-10-22T05:09:18.296Z,6.83
2022-10-22T05:11:49.543Z,8.15
2022-10-22T05:14:21.270Z,7.60
2022-10-22T05:16:52.688Z,7.62
2022-10-22T05:19:29.374Z,7.60
2022-10-22T05:22:02.143Z,5.72
2022-10-22T05:24:32.713Z,7.25
2022-10-22T05:27:02.845Z,6.42
2022-10-22T05:29:32.566Z,7.00
2022-10-22T05:32:02.527Z,6.90
2022-10-22T05:34:33.515Z,7.47
2022-10-22T05:37:04.110Z,7.83
2022-10-22T05:39:35.396Z,7.33
2022-10-22T05:42:05.339Z,8.70
2022-10-22T05:44:34.833Z,7.65
2022-10-22T05:47:04.502Z,8.80
2022-10-22T05:49:34.817Z,8.13
2022-10-22T05:52:05.557Z,7.80
2022-10-22T05:54:35.107Z,8.40
2022-10-22T05:57:04.496Z,8.58
2022-10-22T05:59:33.816Z,8.10
2022-10-22T06:02:03.650Z,8.48
2022-10-22T06:04:33.193Z,7.87
2022-10-22T06:07:02.537Z,7.97
2022-10-22T06:12:09.061Z,7.40
2022-10-22T06:14:40.065Z,7.40
2022-10-22T06:17:13.130Z,7.15
2022-10-22T06:19:44.145Z,7.00
2022-10-22T06:22:14.452Z,7.33
2022-10-22T06:24:45.410Z,7.12
2022-10-22T06:27:15.569Z,6.50
2022-10-22T06:29:46.834Z,6.72
2022-10-22T06:32:15.803Z,7.47
2022-10-22T06:34:48.244Z,7.03
2022-10-22T06:37:17.329Z,7.17
2022-10-22T06:39:46.351Z,6.40
2022-10-22T06:42:16.664Z,6.90
2022-10-22T06:44:46.422Z,6.45
2022-10-22T06:47:15.711Z,6.62
2022-10-22T06:49:46.719Z,7.12
2022-10-22T06:52:17.138Z,7.22
2022-10-22T06:54:46.433Z,6.28
2022-10-22T06:57:16.413Z,6.33
2022-10-22T06:59:47.240Z,6.15
2022-10-22T07:02:17.170Z,6.17
2022-10-22T07:04:47.010Z,6.62
2022-10-22T07:07:15.876Z,6.35
2022-10-22T07:09:47.327Z,6.17
2022-10-22T07:12:17.598Z,5.67
2022-10-22T07:14:49.555Z,6.10
2022-10-22T07:17:21.375Z,5.85
2022-10-22T07:19:51.329Z,5.72
2022-10-22T07:22:22.256Z,5.85
2022-10-22T07:24:51.564Z,5.92
2022-10-22T07:27:20.504Z,5.83
2022-10-22T07:29:50.063Z,5.55
2022-10-22T07:32:31.507Z,5.70
2022-10-22T07:35:01.871Z,6.03
2022-10-22T07:37:32.756Z,5.87
2022-10-22T07:40:04.136Z,6.45
2022-10-22T07:42:33.869Z,5.78
2022-10-22T07:45:04.050Z,6.17
2022-10-22T07:47:34.574Z,6.22
2022-10-22T07:50:06.734Z,6.08
2022-10-22T07:52:35.890Z,5.55
2022-10-22T07:55:07.731Z,5.50
2022-10-22T07:57:38.691Z,5.78
2022-10-22T08:00:09.176Z,5.70
2022-10-22T08:02:40.861Z,5.87
2022-10-22T08:05:10.347Z,6.33
2022-10-22T08:07:39.784Z,6.15
2022-10-22T08:10:09.527Z,5.95
2022-10-22T08:12:39.145Z,5.80
2022-10-22T08:15:10.631Z,5.50
2022-10-22T08:17:40.191Z,5.30
2022-10-22T08:20:10.902Z,5.17
2022-10-22T08:22:39.774Z,5.35
2022-10-22T08:25:10.061Z,4.70
2022-10-22T08:27:38.800Z,5.03
2022-10-22T08:30:09.231Z,4.83
2022-10-22T08:32:38.051Z,4.97
2022-10-22T08:35:11.110Z,5.35
2022-10-22T08:37:41.314Z,4.80
2022-10-22T08:40:12.533Z,4.97
2022-10-22T08:43:11.929Z,5.05
2022-10-22T08:46:01.432Z,4.78
2022-10-22T08:48:44.398Z,4.75
2022-10-22T08:51:17.669Z,4.37
2022-10-22T08:54:07.421Z,4.95
2022-10-22T08:56:38.929Z,4.72
2022-10-22T08:59:19.853Z,5.37
2022-10-22T09:01:53.809Z,4.83
2022-10-22T09:04:41.440Z,4.78
2022-10-22T09:07:10.595Z,5.05
2022-10-22T09:09:42.736Z,5.20
2022-10-22T09:12:19.212Z,5.83
2022-10-22T09:14:45.534Z,5.17
2022-10-22T09:17:41.557Z,5.37
2022-10-22T09:20:21.373Z,5.55
2022-10-22T09:23:22.343Z,5.35
2022-10-22T09:25:52.550Z,5.40
2022-10-22T09:28:22.677Z,5.12
2022-10-22T09:30:52.418Z,4.70
2022-10-22T09:33:28.033Z,5.10
2022-10-22T09:36:01.754Z,5.25
2022-10-22T09:38:33.401Z,5.30
2022-10-22T09:41:04.775Z,5.45
2022-10-22T09:43:35.833Z,5.45
2022-10-22T09:46:07.910Z,5.83
2022-10-22T09:48:42.444Z,5.55
2022-10-22T09:51:23.412Z,5.35
2022-10-22T09:54:01.587Z,5.50
2022-10-22T09:56:37.236Z,5.08
2022-10-22T09:59:11.251Z,4.78
2022-10-22T10:01:41.421Z,4.92
2022-10-22T10:04:13.705Z,4.97
2022-10-22T10:06:44.667Z,4.90
2022-10-22T10:09:19.297Z,5.72
2022-10-22T10:12:11.024Z,5.33
2022-10-22T10:14:47.233Z,5.20
2022-10-22T10:17:46.094Z,5.03
2022-10-22T10:20:29.469Z,6.90
2022-10-22T10:23:23.126Z,6.40
2022-10-22T10:26:07.173Z,5.97
2022-10-22T10:28:58.117Z,5.40
2022-10-22T10:32:23.720Z,5.05
2022-10-22T10:35:27.788Z,5.47
2022-10-22T10:38:29.765Z,5.17
2022-10-22T10:41:29.392Z,4.70
2022-10-22T10:44:31.583Z,5.20
2022-10-22T10:47:31.337Z,4.78
2022-10-22T10:50:37.032Z,4.85
2022-10-22T10:53:37.373Z,5.05
2022-10-22T10:56:49.607Z,5.15
2022-10-22T10:59:54.712Z,5.20
2022-10-22T11:03:12.540Z,5.17
2022-10-22T11:06:10.662Z,4.75
2022-10-22T11:08:45.719Z,5.17
2022-10-22T11:11:24.982Z,6.20
2022-10-22T11:14:04.255Z,5.37
2022-10-22T11:17:01.737Z,5.67
2022-10-22T11:19:54.618Z,5.58
2022-10-22T11:22:34.528Z,5.10
2022-10-22T11:25:18.430Z,5.60
2022-10-22T11:28:06.601Z,5.47
2022-10-22T11:30:37.623Z,5.67
2022-10-22T11:33:12.501Z,5.40
2022-10-22T11:35:44.615Z,5.28
2022-10-22T11:38:20.823Z,5.30
2022-10-22T11:41:16.340Z,5.70
2022-10-22T11:43:58.179Z,5.20
2022-10-22T11:46:41.771Z,5.87
2022-10-22T11:49:18.602Z,5.97
2022-10-22T11:51:48.077Z,5.65
2022-10-22T11:54:43.991Z,6.00
2022-10-22T11:57:24.416Z,6.62
2022-10-22T11:59:59.527Z,6.25
2022-10-22T12:02:45.957Z,5.45
2022-10-22T12:05:29.046Z,6.25
2022-10-22T12:08:17.891Z,6.03
2022-10-22T12:11:06.459Z,6.40
2022-10-22T12:14:17.086Z,5.65
2022-10-22T12:16:57.449Z,5.62
2022-10-22T12:19:31.771Z,6.08
2022-10-22T12:22:17.597Z,5.62
2022-10-22T12:24:52.231Z,5.03
2022-10-22T12:27:40.773Z,5.12
2022-10-22T12:30:23.660Z,5.47
2022-10-22T12:33:02.558Z,5.70
2022-10-22T12:35:36.049Z,5.05
2022-10-22T12:38:15.062Z,5.60
2022-10-22T12:40:48.383Z,5.95
2022-10-22T12:43:22.832Z,5.28
2022-10-22T12:45:52.624Z,5.60
2022-10-22T12:48:29.041Z,5.12
2022-10-22T12:51:03.660Z,5.22
2022-10-22T12:53:39.120Z,5.35
2022-10-22T12:56:24.360Z,5.20
2022-10-22T12:59:07.991Z,5.30
2022-10-22T13:01:39.681Z,5.83
2022-10-22T13:04:22.874Z,5.58
2022-10-22T13:06:55.908Z,4.83
2022-10-22T13:09:27.665Z,5.20
2022-10-22T13:12:04.739Z,5.40
2022-10-22T13:17:19.005Z,5.15
2022-10-22T13:19:57.965Z,5.55
2022-10-22T13:22:38.105Z,5.50
2022-10-22T13:25:22.136Z,5.78
2022-10-22T13:28:04.611Z,5.60
2022-10-22T13:30:38.656Z,5.03
2022-10-22T13:33:28.792Z,5.80
2022-10-22T13:35:59.748Z,5.45
2022-10-22T13:38:30.158Z,4.70
2022-10-22T13:41:00.628Z,4.47
2022-10-22T13:43:30.866Z,5.45
2022-10-22T13:46:01.148Z,7.60
2022-10-22T13:48:30.121Z,5.33
2022-10-22T13:51:00.649Z,5.08
2022-10-22T13:53:30.940Z,4.90
2022-10-22T13:56:01.351Z,5.28
2022-10-22T13:58:31.908Z,5.17
2022-10-22T14:01:02.706Z,5.40
2022-10-22T14:03:35.537Z,5.60
2022-10-22T14:06:10.380Z,5.47
2022-10-22T14:08:40.894Z,5.10
2022-10-22T14:11:13.857Z,5.70
2022-10-22T14:13:43.147Z,5.30
2022-10-22T14:16:20.608Z,5.40
2022-10-22T14:18:50.078Z,5.15
2022-10-22T14:21:21.261Z,5.60
2022-10-22T14:23:54.131Z,5.35
2022-10-22T14:26:27.870Z,5.50
2022-10-22T14:29:09.136Z,6.40
2022-10-22T14:31:29.210Z,5.90
2022-10-22T14:33:59.413Z,5.97
2022-10-22T14:36:29.139Z,7.03
2022-10-22T14:38:59.430Z,5.85
2022-10-22T14:41:29.087Z,6.05
2022-10-22T14:43:59.548Z,5.92
2022-10-22T14:46:30.360Z,6.37
2022-10-22T14:49:00.314Z,6.42
2022-10-22T14:51:29.790Z,5.50
2022-10-22T14:53:58.854Z,6.33
2022-10-22T14:56:29.181Z,6.45
2022-10-22T14:59:00.426Z,6.15
2022-10-22T15:01:30.141Z,6.45
2022-10-22T15:03:59.670Z,6.65
2022-10-22T15:06:30.902Z,7.28
2022-10-22T15:09:02.735Z,8.05
2022-10-22T15:11:31.883Z,10.35
2022-10-22T15:14:03.449Z,12.70
2022-10-22T15:16:34.455Z,11.40
2022-10-22T15:19:05.282Z,11.97
2022-10-22T15:21:35.267Z,12.15
2022-10-22T15:24:06.764Z,12.05
2022-10-22T15:26:38.328Z,11.57
2022-10-22T15:29:10.520Z,10.32
2022-10-22T15:31:53.567Z,11.53
2022-10-22T15:34:34.680Z,11.28
2022-10-22T15:37:08.474Z,10.90
2022-10-22T15:39:41.972Z,9.50
2022-10-22T15:42:12.060Z,9.13
2022-10-22T15:44:42.009Z,9.35
2022-10-22T15:47:13.183Z,9.10
2022-10-22T15:49:43.022Z,8.70
2022-10-22T15:52:13.696Z,9.28
2022-10-22T15:54:44.215Z,8.80
2022-10-22T15:57:15.256Z,9.08
2022-10-22T15:59:47.033Z,7.83
2022-10-22T16:02:17.240Z,8.95
2022-10-22T16:04:46.567Z,8.93
2022-10-22T16:07:19.838Z,9.10
2022-10-22T16:09:50.384Z,9.28
2022-10-22T16:12:20.022Z,9.60
2022-10-22T16:14:53.259Z,9.95
2022-10-22T16:17:23.293Z,13.50
2022-10-22T16:19:55.135Z,12.58
2022-10-22T16:22:25.687Z,11.50
2022-10-22T16:24:56.554Z,8.98
2022-10-22T16:27:26.775Z,9.75
2022-10-22T16:29:56.967Z,8.00
2022-10-22T16:32:27.771Z,8.60
2022-10-22T16:34:57.932Z,9.08
2022-10-22T16:37:27.313Z,9.20
2022-10-22T16:40:00.958Z,8.75
2022-10-22T16:42:31.670Z,9.08
2022-10-22T16:45:01.585Z,9.30
2022-10-22T16:47:31.740Z,9.40
2022-10-22T16:50:03.046Z,10.35
2022-10-22T16:52:33.390Z,10.23
2022-10-22T16:55:03.674Z,9.80
2022-10-22T16:57:34.421Z,9.75
2022-10-22T17:00:07.120Z,10.48
2022-10-22T17:02:38.115Z,11.35
2022-10-22T17:05:09.960Z,11.73
2022-10-22T17:07:40.887Z,10.60
2022-10-22T17:10:12.035Z,11.78
2022-10-22T17:12:43.486Z,11.93
2022-10-22T17:15:13.487Z,12.18
2022-10-22T17:17:47.624Z,12.43
2022-10-22T17:20:18.145Z,14.45
2022-10-22T17:22:50.070Z,16.07
2022-10-22T17:25:30.754Z,18.27
2022-10-22T17:28:02.503Z,19.35
2022-10-22T17:30:33.025Z,19.15
2022-10-22T17:33:03.084Z,19.87
2022-10-22T17:35:35.047Z,20.35
2022-10-22T17:38:04.404Z,21.70
2022-10-22T17:40:35.467Z,22.65
2022-10-22T17:43:04.522Z,21.50
2022-10-22T17:45:34.429Z,21.75
2022-10-22T17:48:05.178Z,21.45
2022-10-22T17:50:35.232Z,23.00
2022-10-22T17:53:05.955Z,22.42
2022-10-22T17:55:36.340Z,21.25
2022-10-22T17:58:08.992Z,20.70
2022-10-22T18:00:39.031Z,19.25
2022-10-22T18:03:09.815Z,20.30
2022-10-22T18:05:39.838Z,20.80
2022-10-22T18:08:09.492Z,20.92
2022-10-22T18:10:41.818Z,21.10
2022-10-22T18:13:11.903Z,19.35
2022-10-22T18:15:41.966Z,20.45
2022-10-22T18:18:14.881Z,20.70
2022-10-22T18:20:50.995Z,22.42
2022-10-22T18:23:21.857Z,24.55
2022-10-22T18:25:53.065Z,27.87
2022-10-22T18:28:23.587Z,26.68
2022-10-22T18:30:52.931Z,30.23
2022-10-22T18:33:25.588Z,32.17
2022-10-22T18:35:57.251Z,28.73
2022-10-22T18:38:27.269Z,28.32
2022-10-22T18:40:56.290Z,28.30
2022-10-22T18:43:25.713Z,27.62
2022-10-22T18:45:55.482Z,25.02
2022-10-22T18:48:27.183Z,24.35
2022-10-22T18:51:06.457Z,24.52
2022-10-22T18:53:40.247Z,23.90
2022-10-22T18:56:11.792Z,25.20
2022-10-22T18:58:45.479Z,24.12
2022-10-22T19:01:21.581Z,24.47
2022-10-22T19:03:51.296Z,24.47
2022-10-22T19:06:26.498Z,23.67
2022-10-22T19:08:57.292Z,22.55
2022-10-22T19:11:27.733Z,20.88
2022-10-22T19:13:57.485Z,19.77
2022-10-22T19:16:29.440Z,19.70
2022-10-22T19:19:04.098Z,21.68
2022-10-22T19:21:34.137Z,19.27
2022-10-22T19:24:06.725Z,20.05
2022-10-22T19:26:38.669Z,19.77
2022-10-22T19:29:11.498Z,18.75
2022-10-22T19:31:44.477Z,17.73
2022-10-22T19:34:16.753Z,18.27
2022-10-22T19:36:47.971Z,16.65
2022-10-22T19:39:18.029Z,17.70
2022-10-22T19:41:50.517Z,18.70
2022-10-22T19:44:20.204Z,16.07
2022-10-22T19:46:50.352Z,16.50
2022-10-22T19:49:22.166Z,16.70
2022-10-22T19:51:52.356Z,16.48
2022-10-22T19:54:22.005Z,15.58
2022-10-22T19:56:52.166Z,16.85
2022-10-22T19:59:27.262Z,15.30
2022-10-22T20:01:57.534Z,15.55
2022-10-22T20:04:28.671Z,14.70
2022-10-22T20:06:58.445Z,15.85
2022-10-22T20:09:28.962Z,16.55
2022-10-22T20:11:59.518Z,15.70
2022-10-22T20:14:30.071Z,15.10
2022-10-22T20:17:00.516Z,15.32
2022-10-22T20:19:30.260Z,16.45
2022-10-22T20:22:01.755Z,15.65
2022-10-22T20:24:33.289Z,16.40
2022-10-22T20:27:02.686Z,17.90
2022-10-22T20:29:31.885Z,17.55
2022-10-22T20:32:05.439Z,17.90
2022-10-22T20:34:36.547Z,17.73
2022-10-22T20:37:07.017Z,17.75
2022-10-22T20:39:37.528Z,18.67
2022-10-22T20:42:08.291Z,17.82
2022-10-22T20:44:37.449Z,17.73
2022-10-22T20:47:09.521Z,16.80
2022-10-22T20:49:40.450Z,17.80
2022-10-22T20:52:10.716Z,17.55
2022-10-22T20:54:43.623Z,18.20
2022-10-22T20:57:13.471Z,18.70
2022-10-22T20:59:45.628Z,16.42
2022-10-22T21:02:15.502Z,16.85
2022-10-22T21:04:46.382Z,16.80
2022-10-22T21:07:16.890Z,17.57
2022-10-22T21:09:46.700Z,19.37
2022-10-22T21:12:16.426Z,19.37
2022-10-22T21:14:46.847Z,18.32
2022-10-22T21:17:20.163Z,17.85
2022-10-22T21:19:50.294Z,18.98
2022-10-22T21:22:25.055Z,18.98
2022-10-22T21:24:56.080Z,20.32
2022-10-22T21:27:25.526Z,20.23
2022-10-22T21:29:55.409Z,19.67
2022-10-22T21:32:29.042Z,18.70
2022-10-22T21:34:58.652Z,20.10
2022-10-22T21:37:30.524Z,19.70
2022-10-22T21:40:04.180Z,19.48
2022-10-22T21:42:35.900Z,21.17
2022-10-22T21:45:12.029Z,19.62
2022-10-22T21:47:40.935Z,19.27
2022-10-22T21:50:10.624Z,19.62
2022-10-22T21:52:40.579Z,20.17
2022-10-22T21:55:10.600Z,19.02
2022-10-22T21:57:41.798Z,18.12
2022-10-22T22:00:13.283Z,18.50
2022-10-22T22:02:47.271Z,18.42
2022-10-22T22:05:17.835Z,17.98
2022-10-22T22:07:47.769Z,17.92
2022-10-22T22:10:18.301Z,17.40
2022-10-22T22:12:51.996Z,17.52
2022-10-22T22:15:21.868Z,18.12
2022-10-22T22:17:52.390Z,17.48
2022-10-22T22:20:23.233Z,17.87
2022-10-22T22:22:52.898Z,17.60
2022-10-22T22:25:22.158Z,16.15
2022-10-22T22:27:53.094Z,16.07
2022-10-22T22:30:22.656Z,17.55
2022-10-22T22:32:53.160Z,17.77
2022-10-22T22:35:24.121Z,17.27
2022-10-22T22:37:53.839Z,17.25
2022-10-22T22:40:23.248Z,16.90
2022-10-22T22:42:52.933Z,16.52
2022-10-22T22:45:23.416Z,15.38
2022-10-22T22:47:55.882Z,16.37
2022-10-22T22:50:25.470Z,16.25
2022-10-22T22:52:54.173Z,15.75
2022-10-22T22:55:23.461Z,15.20
2022-10-22T22:57:53.119Z,15.10
2022-10-22T23:00:23.376Z,15.80
2022-10-22T23:02:58.988Z,16.05
2022-10-22T23:05:28.574Z,15.68
2022-10-22T23:07:59.550Z,16.35
2022-10-22T23:10:30.483Z,16.48
2022-10-22T23:12:59.727Z,16.30
2022-10-22T23:15:30.165Z,16.50
2022-10-22T23:18:01.103Z,15.65
2022-10-22T23:20:31.214Z,16.67
2022-10-22T23:23:01.454Z,16.42
2022-10-22T23:25:31.481Z,15.45
2022-10-22T23:28:03.673Z,16.35
2022-10-22T23:30:33.741Z,16.35
2022-10-22T23:33:04.465Z,16.82
2022-10-22T23:35:34.629Z,16.30
2022-10-22T23:38:04.969Z,15.78
2022-10-22T23:40:34.817Z,16.90
2022-10-22T23:43:04.724Z,15.65
2022-10-22T23:45:36.811Z,15.90
2022-10-22T23:48:07.199Z,15.93
2022-10-22T23:50:39.253Z,15.63
2022-10-22T23:53:09.825Z,15.88
2022-10-22T23:55:41.095Z,16.85
2022-10-22T23:58:11.634Z,15.20
